createdAt,value
2019-03-23T00:00:15.135Z,85.26
2019-03-23T00:02:44.939Z,85.18
2019-03-23T00:05:14.825Z,85.27
2019-03-23T00:07:44.452Z,85.76
2019-03-23T00:10:14.073Z,86.28
2019-03-23T00:12:43.685Z,86.18
2019-03-23T00:15:13.892Z,86.32
2019-03-23T00:17:43.883Z,86.22
2019-03-23T00:20:13.686Z,86.48
2019-03-23T00:22:43.329Z,86.91
2019-03-23T00:25:13.129Z,87.59
2019-03-23T00:27:43.028Z,88.17
2019-03-23T00:30:14.022Z,88.49
2019-03-23T00:32:43.715Z,88.25
2019-03-23T00:35:13.957Z,88.32
2019-03-23T00:37:43.524Z,88.78
2019-03-23T00:40:13.362Z,88.66
2019-03-23T00:42:43.697Z,88.76
2019-03-23T00:45:13.297Z,88.60
2019-03-23T00:47:43.249Z,89.03
2019-03-23T00:50:13.333Z,88.90
2019-03-23T00:52:43.316Z,89.35
2019-03-23T00:55:13.594Z,89.29
2019-03-23T00:57:43.313Z,89.36
2019-03-23T01:00:13.555Z,89.94
2019-03-23T01:02:44.151Z,89.90
2019-03-23T01:05:14.124Z,89.80
2019-03-23T01:07:43.915Z,90.26
2019-03-23T01:10:13.773Z,90.07
2019-03-23T01:12:43.490Z,90.61
2019-03-23T01:15:13.491Z,90.48
2019-03-23T01:17:43.435Z,91.23
2019-03-23T01:20:13.640Z,90.62
2019-03-23T01:22:43.727Z,90.62
2019-03-23T01:25:13.361Z,89.90
2019-03-23T01:27:43.483Z,90.50
2019-03-23T01:30:13.489Z,90.22
2019-03-23T01:32:43.258Z,90.54
2019-03-23T01:35:13.168Z,91.34
2019-03-23T01:37:43.104Z,91.54
2019-03-23T01:40:13.222Z,91.59
2019-03-23T01:42:43.375Z,91.32
2019-03-23T01:45:13.605Z,91.60
2019-03-23T01:47:43.474Z,91.65
2019-03-23T01:50:13.313Z,91.42
2019-03-23T01:52:42.890Z,91.93
2019-03-23T01:55:12.622Z,92.24
2019-03-23T01:57:42.499Z,92.24
2019-03-23T02:00:12.540Z,92.53
2019-03-23T02:02:42.554Z,92.30
2019-03-23T02:05:12.956Z,92.66
2019-03-23T02:07:42.582Z,93.60
2019-03-23T02:10:12.176Z,93.50
2019-03-23T02:12:41.907Z,93.50
2019-03-23T02:15:12.147Z,93.65
2019-03-23T02:17:42.044Z,94.08
2019-03-23T02:20:11.748Z,94.06
2019-03-23T02:22:42.187Z,93.98
2019-03-23T02:25:12.189Z,93.98
2019-03-23T02:27:42.263Z,93.95
2019-03-23T02:30:12.359Z,93.71
2019-03-23T02:32:42.037Z,93.23
2019-03-23T02:35:11.961Z,93.71
2019-03-23T02:37:41.562Z,93.48
2019-03-23T02:40:11.419Z,94.14
2019-03-23T02:42:41.060Z,94.21
2019-03-23T02:45:10.938Z,94.11
2019-03-23T02:47:40.771Z,94.05
2019-03-23T02:50:10.656Z,94.05
2019-03-23T02:52:40.401Z,94.07
2019-03-23T02:55:10.190Z,93.74
2019-03-23T02:57:40.039Z,93.74
2019-03-23T03:00:10.749Z,93.78
2019-03-23T03:02:40.547Z,94.21
2019-03-23T03:05:11.267Z,94.21
2019-03-23T03:07:42.894Z,94.09
2019-03-23T03:10:12.559Z,94.09
2019-03-23T03:12:42.177Z,93.92
2019-03-23T03:15:11.976Z,94.92
2019-03-23T03:17:41.662Z,94.92
2019-03-23T03:20:11.560Z,94.58
2019-03-23T03:22:41.172Z,94.58
2019-03-23T03:25:10.952Z,95.03
2019-03-23T03:27:40.545Z,94.90
2019-03-23T03:30:10.694Z,94.39
2019-03-23T03:32:40.321Z,94.39
2019-03-23T03:35:10.060Z,93.78
2019-03-23T03:37:39.806Z,93.78
2019-03-23T03:40:09.531Z,94.01
2019-03-23T03:42:39.363Z,93.58
2019-03-23T03:45:09.514Z,93.56
2019-03-23T03:47:41.182Z,93.90
2019-03-23T03:50:11.112Z,94.26
2019-03-23T03:52:40.695Z,94.72
2019-03-23T03:55:10.567Z,94.86
2019-03-23T03:57:40.605Z,95.17
2019-03-23T04:00:10.759Z,94.98
2019-03-23T04:02:40.360Z,94.98
2019-03-23T04:05:10.910Z,95.58
2019-03-23T04:07:40.601Z,95.98
2019-03-23T04:10:11.583Z,95.98
2019-03-23T04:12:41.167Z,95.98
2019-03-23T04:15:11.022Z,95.91
2019-03-23T04:17:40.616Z,95.91
2019-03-23T04:20:11.394Z,95.69
2019-03-23T04:22:40.981Z,95.45
2019-03-23T04:25:11.143Z,95.92
2019-03-23T04:27:40.899Z,95.82
2019-03-23T04:30:11.097Z,96.02
2019-03-23T04:32:40.704Z,96.02
2019-03-23T04:35:10.489Z,96.03
2019-03-23T04:37:40.087Z,95.91
2019-03-23T04:40:10.354Z,95.67
2019-03-23T04:42:40.252Z,95.67
2019-03-23T04:45:10.979Z,94.83
2019-03-23T04:47:40.693Z,95.29
2019-03-23T04:50:10.633Z,95.22
2019-03-23T04:52:40.266Z,95.83
2019-03-23T04:55:11.253Z,95.83
2019-03-23T04:57:41.307Z,95.55
2019-03-23T05:00:13.439Z,95.81
2019-03-23T05:02:43.016Z,95.81
2019-03-23T05:05:12.965Z,95.42
2019-03-23T05:07:42.569Z,95.65
2019-03-23T05:10:12.648Z,95.79
2019-03-23T05:12:42.425Z,95.79
2019-03-23T05:15:12.218Z,95.52
2019-03-23T05:17:41.869Z,96.08
2019-03-23T05:20:11.608Z,96.08
2019-03-23T05:22:41.449Z,96.58
2019-03-23T05:25:23.195Z,96.58
2019-03-23T05:27:52.799Z,96.05
2019-03-23T05:30:22.622Z,96.05
2019-03-23T05:32:52.397Z,95.90
2019-03-23T05:35:22.192Z,95.66
2019-03-23T05:37:51.807Z,94.84
2019-03-23T05:40:21.506Z,94.84
2019-03-23T05:42:51.183Z,95.05
2019-03-23T05:45:21.219Z,95.10
2019-03-23T05:47:50.872Z,95.10
2019-03-23T05:50:20.681Z,94.76
2019-03-23T05:52:50.439Z,94.36
2019-03-23T05:55:20.185Z,93.71
2019-03-23T05:57:50.213Z,93.71
2019-03-23T06:00:21.062Z,93.72
2019-03-23T06:02:50.690Z,92.19
2019-03-23T06:05:20.510Z,92.19
2019-03-23T06:07:50.337Z,92.26
2019-03-23T06:10:20.076Z,91.36
2019-03-23T06:12:51.018Z,91.36
2019-03-23T06:15:20.898Z,90.94
2019-03-23T06:17:50.818Z,90.26
2019-03-23T06:20:20.701Z,90.25
2019-03-23T06:22:50.800Z,90.25
2019-03-23T06:25:20.499Z,88.66
2019-03-23T06:27:50.807Z,88.66
2019-03-23T06:30:20.573Z,88.69
2019-03-23T06:32:50.611Z,87.41
2019-03-23T06:35:20.435Z,87.15
2019-03-23T06:37:50.243Z,87.15
2019-03-23T06:40:19.869Z,86.08
2019-03-23T06:42:59.409Z,85.05
2019-03-23T06:45:21.152Z,84.64
2019-03-23T06:47:50.866Z,84.22
2019-03-23T06:50:20.961Z,83.30
2019-03-23T06:52:50.945Z,83.09
2019-03-23T06:55:20.805Z,82.99
2019-03-23T06:57:50.710Z,82.50
2019-03-23T07:00:20.914Z,82.17
2019-03-23T07:02:50.795Z,82.05
2019-03-23T07:05:20.760Z,82.28
2019-03-23T07:07:50.530Z,81.96
2019-03-23T07:10:20.328Z,80.79
2019-03-23T07:12:51.329Z,81.50
2019-03-23T07:15:21.060Z,80.71
2019-03-23T07:17:51.010Z,79.40
2019-03-23T07:20:20.776Z,78.49
2019-03-23T07:22:50.426Z,78.08
2019-03-23T07:25:20.029Z,76.95
2019-03-23T07:27:49.650Z,76.68
2019-03-23T07:30:19.523Z,76.21
2019-03-23T07:32:49.334Z,75.78
2019-03-23T07:35:19.728Z,75.94
2019-03-23T07:37:49.438Z,74.88
2019-03-23T07:40:19.554Z,74.28
2019-03-23T07:42:49.379Z,71.97
2019-03-23T07:45:19.015Z,70.62
2019-03-23T07:47:48.790Z,70.96
2019-03-23T07:50:18.933Z,69.94
2019-03-23T07:52:48.774Z,69.97
2019-03-23T07:55:18.488Z,68.06
2019-03-23T07:57:48.773Z,67.19
2019-03-23T08:00:19.467Z,66.04
2019-03-23T08:02:49.302Z,64.13
2019-03-23T08:05:19.081Z,63.33
2019-03-23T08:07:49.421Z,61.66
2019-03-23T08:10:29.302Z,59.04
2019-03-23T08:12:59.186Z,56.67
2019-03-23T08:15:29.085Z,55.91
2019-03-23T08:17:58.967Z,55.44
2019-03-23T08:20:29.109Z,53.03
2019-03-23T08:22:58.944Z,53.40
2019-03-23T08:25:28.766Z,52.83
2019-03-23T08:27:58.409Z,52.73
2019-03-23T08:30:32.072Z,52.10
2019-03-23T08:33:01.714Z,51.17
2019-03-23T08:35:31.916Z,50.02
2019-03-23T08:38:01.763Z,47.75
2019-03-23T08:40:31.754Z,45.97
2019-03-23T08:43:01.501Z,45.45
2019-03-23T08:45:31.709Z,44.20
2019-03-23T08:48:02.472Z,44.39
2019-03-23T08:50:32.254Z,43.35
2019-03-23T08:53:02.079Z,43.60
2019-03-23T08:55:31.952Z,42.84
2019-03-23T08:58:01.586Z,42.85
2019-03-23T09:00:31.409Z,42.80
2019-03-23T09:03:03.609Z,43.66
2019-03-23T09:05:32.845Z,44.21
2019-03-23T09:08:02.481Z,43.35
2019-03-23T09:10:32.250Z,43.20
2019-03-23T09:13:01.850Z,43.29
2019-03-23T09:15:31.525Z,43.41
2019-03-23T09:18:01.673Z,42.67
2019-03-23T09:20:31.553Z,43.14
2019-03-23T09:23:01.537Z,42.39
2019-03-23T09:25:31.358Z,42.20
2019-03-23T09:28:01.205Z,42.05
2019-03-23T09:30:30.971Z,41.45
2019-03-23T09:33:00.719Z,42.47
2019-03-23T09:35:30.675Z,42.47
2019-03-23T09:38:00.525Z,42.16
2019-03-23T09:40:31.571Z,41.67
2019-03-23T09:43:01.302Z,42.33
2019-03-23T09:45:31.172Z,40.99
2019-03-23T09:48:00.862Z,41.98
2019-03-23T09:50:30.643Z,42.16
2019-03-23T09:53:00.688Z,41.61
2019-03-23T09:55:30.471Z,41.17
2019-03-23T09:58:00.590Z,40.51
2019-03-23T10:00:30.302Z,39.95
2019-03-23T10:02:59.917Z,40.55
2019-03-23T10:05:29.624Z,39.89
2019-03-23T10:07:59.389Z,41.49
2019-03-23T10:10:29.208Z,39.73
2019-03-23T10:12:58.831Z,39.58
2019-03-23T10:15:28.580Z,40.08
2019-03-23T10:17:58.234Z,39.10
2019-03-23T10:20:27.872Z,40.35
2019-03-23T10:22:57.666Z,40.89
2019-03-23T10:25:27.572Z,40.00
2019-03-23T10:27:57.404Z,38.93
2019-03-23T10:30:27.239Z,38.97
2019-03-23T10:32:56.983Z,40.02
2019-03-23T10:35:26.572Z,38.64
2019-03-23T10:37:56.476Z,39.70
2019-03-23T10:40:32.398Z,38.60
2019-03-23T10:42:57.810Z,37.89
2019-03-23T10:45:27.447Z,37.33
2019-03-23T10:50:26.873Z,38.43
2019-03-23T10:52:56.669Z,38.28
2019-03-23T10:55:26.260Z,36.54
2019-03-23T10:57:56.038Z,35.59
2019-03-23T11:00:25.713Z,36.08
2019-03-23T11:02:55.638Z,36.54
2019-03-23T11:05:25.274Z,37.03
2019-03-23T11:07:56.227Z,34.95
2019-03-23T11:10:25.923Z,34.63
2019-03-23T11:12:55.643Z,34.96
2019-03-23T11:15:25.444Z,35.53
2019-03-23T11:17:55.212Z,35.55
2019-03-23T11:20:24.931Z,35.62
2019-03-23T11:22:54.535Z,34.13
2019-03-23T11:25:24.146Z,32.40
2019-03-23T11:27:53.950Z,32.58
2019-03-23T11:30:23.537Z,32.88
2019-03-23T11:32:53.354Z,33.41
2019-03-23T11:35:23.323Z,33.32
2019-03-23T11:37:53.253Z,32.26
2019-03-23T11:40:23.010Z,32.99
2019-03-23T11:42:52.719Z,32.70
2019-03-23T11:45:22.324Z,33.32
2019-03-23T11:47:52.248Z,34.15
2019-03-23T11:50:22.200Z,33.65
2019-03-23T11:52:52.430Z,32.88
2019-03-23T11:55:22.065Z,33.43
2019-03-23T11:57:52.053Z,32.87
2019-03-23T12:00:21.674Z,32.84
2019-03-23T12:02:51.482Z,32.91
2019-03-23T12:05:21.080Z,33.28
2019-03-23T12:07:50.742Z,34.06
2019-03-23T12:10:20.375Z,33.37
2019-03-23T12:12:50.255Z,33.80
2019-03-23T12:15:19.884Z,32.41
2019-03-23T12:17:49.772Z,33.69
2019-03-23T12:20:19.403Z,31.80
2019-03-23T12:22:49.149Z,31.83
2019-03-23T12:25:18.725Z,32.70
2019-03-23T12:27:48.414Z,32.68
2019-03-23T12:30:18.268Z,32.58
2019-03-23T12:32:48.022Z,32.34
2019-03-23T12:35:17.638Z,32.70
2019-03-23T12:37:47.423Z,31.85
2019-03-23T12:40:17.066Z,31.50
2019-03-23T12:42:46.918Z,31.35
2019-03-23T12:45:16.886Z,31.80
2019-03-23T12:47:46.483Z,31.54
2019-03-23T12:50:16.307Z,31.37
2019-03-23T12:52:46.077Z,31.97
2019-03-23T12:55:15.915Z,31.57
2019-03-23T12:57:45.619Z,32.81
2019-03-23T13:00:15.456Z,32.28
2019-03-23T13:02:45.097Z,32.03
2019-03-23T13:05:14.804Z,32.03
2019-03-23T13:07:44.736Z,30.96
2019-03-23T13:10:14.816Z,30.90
2019-03-23T13:12:44.455Z,31.07
2019-03-23T13:15:15.887Z,31.39
2019-03-23T13:17:45.663Z,31.35
2019-03-23T13:20:15.548Z,31.21
2019-03-23T13:22:45.320Z,30.90
2019-03-23T13:25:14.920Z,30.55
2019-03-23T13:27:44.749Z,29.95
2019-03-23T13:30:15.758Z,29.94
2019-03-23T13:32:45.331Z,30.35
2019-03-23T13:35:15.318Z,30.41
2019-03-23T13:37:45.130Z,30.91
2019-03-23T13:40:15.664Z,30.58
2019-03-23T13:42:45.270Z,31.01
2019-03-23T13:45:15.375Z,30.77
2019-03-23T13:47:45.171Z,31.51
2019-03-23T13:50:17.238Z,31.25
2019-03-23T13:52:46.953Z,30.87
2019-03-23T13:55:27.668Z,31.73
2019-03-23T13:57:59.716Z,31.36
2019-03-23T14:00:29.348Z,31.23
2019-03-23T14:02:59.472Z,31.01
2019-03-23T14:05:29.314Z,30.91
2019-03-23T14:07:59.170Z,30.65
2019-03-23T14:10:28.753Z,30.45
2019-03-23T14:12:58.708Z,31.40
2019-03-23T14:15:28.483Z,31.05
2019-03-23T14:17:58.164Z,30.97
2019-03-23T14:20:27.766Z,31.15
2019-03-23T14:23:02.592Z,31.09
2019-03-23T14:25:29.043Z,31.08
2019-03-23T14:27:58.883Z,31.39
2019-03-23T14:30:29.054Z,31.31
2019-03-23T14:32:59.305Z,31.53
2019-03-23T14:35:28.900Z,31.55
2019-03-23T14:37:58.647Z,31.95
2019-03-23T14:40:28.925Z,32.03
2019-03-23T14:42:59.027Z,32.56
2019-03-23T14:45:28.840Z,32.77
2019-03-23T14:47:58.748Z,33.54
2019-03-23T14:50:28.693Z,32.74
2019-03-23T14:52:58.452Z,33.61
2019-03-23T14:55:28.229Z,33.40
2019-03-23T14:57:57.886Z,34.08
2019-03-23T15:00:34.425Z,33.37
2019-03-23T15:03:04.546Z,34.15
2019-03-23T15:05:34.383Z,33.99
2019-03-23T15:08:03.980Z,33.54
2019-03-23T15:10:33.788Z,33.53
2019-03-23T15:13:03.716Z,33.41
2019-03-23T15:15:33.483Z,33.38
2019-03-23T15:18:03.327Z,33.83
2019-03-23T15:20:33.459Z,34.32
2019-03-23T15:23:03.115Z,34.63
2019-03-23T15:25:32.957Z,34.79
2019-03-23T15:28:02.768Z,35.23
2019-03-23T15:30:32.495Z,35.40
2019-03-23T15:33:02.113Z,35.28
2019-03-23T15:35:31.691Z,36.20
2019-03-23T15:38:01.581Z,36.61
2019-03-23T15:40:31.414Z,36.80
2019-03-23T15:43:01.194Z,36.40
2019-03-23T15:45:31.106Z,37.17
2019-03-23T15:48:00.924Z,37.12
2019-03-23T15:50:30.687Z,36.84
2019-03-23T15:53:00.478Z,36.77
2019-03-23T15:55:30.286Z,36.68
2019-03-23T15:58:02.544Z,37.14
2019-03-23T16:00:32.471Z,37.49
2019-03-23T16:03:02.620Z,37.29
2019-03-23T16:05:32.282Z,37.63
2019-03-23T16:08:01.962Z,37.90
2019-03-23T16:10:31.579Z,37.79
2019-03-23T16:13:01.230Z,38.31
2019-03-23T16:15:31.012Z,37.98
2019-03-23T16:18:01.720Z,38.29
2019-03-23T16:20:31.405Z,38.74
2019-03-23T16:23:01.088Z,39.13
2019-03-23T16:25:30.839Z,38.81
2019-03-23T16:28:00.658Z,39.17
2019-03-23T16:30:32.724Z,39.54
2019-03-23T16:33:02.600Z,39.84
2019-03-23T16:35:32.344Z,40.15
2019-03-23T16:38:02.097Z,40.64
2019-03-23T16:40:31.797Z,40.87
2019-03-23T16:43:01.794Z,40.95
2019-03-23T16:45:31.801Z,41.69
2019-03-23T16:48:01.543Z,41.80
2019-03-23T16:50:31.335Z,41.86
2019-03-23T16:53:01.425Z,42.04
2019-03-23T16:55:31.341Z,42.28
2019-03-23T16:58:01.097Z,42.31
2019-03-23T17:00:37.988Z,42.38
2019-03-23T17:03:07.762Z,42.65
2019-03-23T17:05:37.606Z,42.63
2019-03-23T17:08:07.565Z,42.00
2019-03-23T17:10:37.780Z,41.43
2019-03-23T17:13:07.963Z,41.73
2019-03-23T17:15:37.597Z,41.21
2019-03-23T17:18:07.384Z,39.89
2019-03-23T17:20:36.982Z,39.45
2019-03-23T17:23:07.365Z,39.53
2019-03-23T17:25:37.826Z,39.60
2019-03-23T17:28:07.629Z,40.03
2019-03-23T17:30:37.388Z,40.38
2019-03-23T17:33:08.942Z,40.95
2019-03-23T17:35:38.905Z,41.73
2019-03-23T17:38:08.514Z,43.04
2019-03-23T17:40:38.617Z,44.03
2019-03-23T17:43:08.590Z,44.56
2019-03-23T17:45:38.250Z,45.66
2019-03-23T17:48:08.075Z,47.80
2019-03-23T17:50:38.017Z,48.60
2019-03-23T17:53:07.816Z,49.21
2019-03-23T17:55:37.624Z,50.02
2019-03-23T17:58:08.859Z,51.09
2019-03-23T18:00:38.467Z,51.45
2019-03-23T18:03:08.384Z,51.78
2019-03-23T18:05:38.234Z,51.93
2019-03-23T18:08:07.843Z,52.77
2019-03-23T18:10:37.678Z,50.80
2019-03-23T18:13:16.181Z,50.82
2019-03-23T18:15:39.125Z,50.83
2019-03-23T18:18:08.824Z,53.41
2019-03-23T18:20:38.648Z,54.48
2019-03-23T18:23:08.300Z,56.13
2019-03-23T18:25:38.119Z,57.18
2019-03-23T18:28:07.966Z,57.84
2019-03-23T18:30:39.603Z,58.38
2019-03-23T18:33:09.382Z,59.07
2019-03-23T18:35:39.260Z,59.29
2019-03-23T18:38:08.993Z,60.46
2019-03-23T18:40:39.008Z,61.26
2019-03-23T18:43:08.819Z,62.21
2019-03-23T18:45:38.796Z,63.21
2019-03-23T18:48:08.558Z,63.49
2019-03-23T18:50:38.175Z,63.67
2019-03-23T18:53:08.140Z,64.63
2019-03-23T18:55:37.958Z,65.14
2019-03-23T18:58:07.961Z,64.89
2019-03-23T19:00:39.904Z,65.36
2019-03-23T19:03:10.309Z,65.45
2019-03-23T19:05:40.332Z,65.93
2019-03-23T19:08:11.935Z,66.46
2019-03-23T19:10:41.913Z,66.98
2019-03-23T19:13:11.814Z,67.36
2019-03-23T19:15:41.601Z,67.09
2019-03-23T19:18:11.397Z,67.37
2019-03-23T19:20:41.437Z,67.25
2019-03-23T19:23:11.078Z,67.45
2019-03-23T19:25:41.165Z,68.11
2019-03-23T19:28:11.005Z,68.22
2019-03-23T19:30:40.651Z,68.70
2019-03-23T19:33:10.698Z,69.22
2019-03-23T19:35:40.414Z,69.47
2019-03-23T19:38:11.532Z,69.66
2019-03-23T19:40:41.209Z,69.70
2019-03-23T19:43:11.107Z,69.76
2019-03-23T19:45:41.257Z,70.08
2019-03-23T19:48:10.916Z,70.08
2019-03-23T19:50:40.609Z,70.37
2019-03-23T19:53:10.747Z,70.11
2019-03-23T19:55:40.615Z,70.51
2019-03-23T19:58:10.619Z,70.78
2019-03-23T20:00:40.396Z,70.79
2019-03-23T20:03:10.274Z,71.51
2019-03-23T20:05:40.057Z,71.31
2019-03-23T20:08:10.126Z,71.35
2019-03-23T20:10:40.250Z,71.84
2019-03-23T20:13:10.152Z,72.24
2019-03-23T20:15:40.129Z,72.43
2019-03-23T20:18:09.863Z,72.59
2019-03-23T20:20:39.609Z,72.90
2019-03-23T20:23:11.346Z,73.23
2019-03-23T20:25:41.502Z,73.08
2019-03-23T20:28:11.164Z,73.25
2019-03-23T20:30:40.895Z,73.61
2019-03-23T20:33:19.088Z,73.75
2019-03-23T20:35:42.419Z,73.83
2019-03-23T20:38:12.296Z,73.92
2019-03-23T20:40:42.173Z,74.39
2019-03-23T20:43:12.081Z,74.52
2019-03-23T20:45:42.578Z,74.73
2019-03-23T20:48:12.647Z,74.97
2019-03-23T20:50:43.511Z,75.22
2019-03-23T20:53:14.055Z,75.38
2019-03-23T20:55:44.026Z,75.87
2019-03-23T20:58:13.764Z,76.04
2019-03-23T21:00:43.416Z,76.43
2019-03-23T21:03:13.483Z,76.60
2019-03-23T21:05:45.813Z,76.78
2019-03-23T21:08:15.855Z,77.09
2019-03-23T21:10:45.511Z,77.13
2019-03-23T21:13:15.642Z,77.00
2019-03-23T21:15:45.941Z,77.24
2019-03-23T21:18:15.914Z,77.39
2019-03-23T21:20:45.967Z,77.23
2019-03-23T21:23:15.647Z,77.20
2019-03-23T21:25:45.481Z,77.66
2019-03-23T21:28:15.256Z,77.98
2019-03-23T21:30:44.867Z,78.07
2019-03-23T21:33:14.766Z,78.00
2019-03-23T21:35:45.107Z,78.47
2019-03-23T21:38:14.727Z,78.75
2019-03-23T21:40:44.372Z,79.13
2019-03-23T21:43:14.667Z,79.35
2019-03-23T21:45:44.523Z,79.45
2019-03-23T21:48:14.279Z,79.60
2019-03-23T21:50:47.772Z,80.25
2019-03-23T21:53:15.887Z,80.32
2019-03-23T21:55:45.759Z,80.47
2019-03-23T21:58:16.667Z,80.58
2019-03-23T22:00:47.281Z,80.44
2019-03-23T22:03:17.079Z,80.52
2019-03-23T22:05:47.326Z,80.81
2019-03-23T22:08:17.125Z,81.47
2019-03-23T22:10:47.058Z,81.82
2019-03-23T22:13:16.923Z,82.47
2019-03-23T22:15:47.102Z,82.39
2019-03-23T22:18:16.881Z,82.40
2019-03-23T22:20:46.504Z,82.41
2019-03-23T22:23:16.433Z,82.39
2019-03-23T22:25:46.126Z,82.92
2019-03-23T22:28:15.880Z,83.32
2019-03-23T22:30:45.710Z,83.12
2019-03-23T22:33:15.466Z,82.91
2019-03-23T22:35:45.232Z,83.13
2019-03-23T22:38:15.348Z,83.52
2019-03-23T22:40:45.138Z,83.87
2019-03-23T22:43:15.093Z,83.78
2019-03-23T22:45:44.950Z,83.73
2019-03-23T22:48:15.008Z,83.89
2019-03-23T22:50:44.617Z,83.96
2019-03-23T22:53:14.360Z,84.63
2019-03-23T22:55:44.009Z,84.62
2019-03-23T22:58:13.638Z,84.39
2019-03-23T23:00:48.104Z,84.58
2019-03-23T23:03:18.065Z,85.08
2019-03-23T23:05:47.738Z,85.46
2019-03-23T23:08:17.354Z,85.71
2019-03-23T23:10:47.576Z,85.79
2019-03-23T23:13:17.322Z,86.05
2019-03-23T23:15:47.015Z,85.90
2019-03-23T23:18:16.890Z,85.83
2019-03-23T23:20:46.665Z,85.80
2019-03-23T23:23:16.266Z,86.01
2019-03-23T23:25:45.878Z,86.52
2019-03-23T23:28:15.551Z,86.54
2019-03-23T23:30:45.362Z,86.77
2019-03-23T23:33:15.109Z,86.54
2019-03-23T23:35:44.774Z,86.67
2019-03-23T23:38:14.386Z,86.75
2019-03-23T23:40:44.213Z,86.54
2019-03-23T23:43:13.809Z,86.61
2019-03-23T23:45:43.498Z,86.62
2019-03-23T23:48:13.311Z,86.31
2019-03-23T23:50:43.040Z,86.20
2019-03-23T23:53:12.680Z,86.45
2019-03-23T23:55:42.461Z,86.74
2019-03-23T23:58:12.219Z,87.04
